Impacts METAR Board
IDs:

KT74 - Taylor Muni, TX, US

Updated at: 0000 UTC 20 Sep 2020
Potential Impact None Slight Moderate High
Time 19/12Z 19/13Z 19/14Z 19/15Z 19/16Z 19/17Z 19/18Z 19/19Z 19/20Z 19/21Z 19/22Z 19/23Z 20/00Z
Temp64 65 67 71 74 77 79 81 82 82 82 81 78
Dewpt62 63 64 64 64 64 64 62 60 60 57 57 56
Altim30.09 30.10 30.11 30.12 30.13 30.12 30.10 30.08 30.05 30.03 30.02 30.02 30.03
VIS7 5 7 7 7 10 10 10 10 10 10 10 7
CIG-- -- -- -- -- -- -- -- -- -- -- -- --
CoverCLRCLRCLRSCTCLRSCTSCTSCTCLRCLRCLRCLRCLR
FltCatVFRMVFRVFRVFRVFRVFRVFRVFRVFRVFRVFRVFRVFR
WXBRBRBR--------------------
WDir3603601040303030303020103020
WSpd7 8 11 10 8 10 11 11 12 15 15 11 11
WGst-- -- -- -- -- 16 -- -- 19 20 18 -- 18
Raw hourly METARs
KT74 191155Z AUTO 36007KT 7SM BR CLR 18/17 A3009 RMK AO2 T01800169 10206 20179
KT74 191255Z AUTO 36008KT 5SM BR CLR 18/17 A3010 RMK AO2 T01830172
KT74 191355Z AUTO 01011KT 7SM BR CLR 20/18 A3011 RMK AO2 T01970178
KT74 191455Z AUTO 04010KT 7SM SCT014 22/18 A3012 RMK AO2 T02150178
KT74 191555Z AUTO 03008KT 7SM CLR 23/18 A3013 RMK AO2 T02310179
KT74 191655Z AUTO 03010G16KT 10SM SCT024 25/18 A3012 RMK AO2 T02490180
KT74 191755Z AUTO 03011KT 10SM SCT033 26/17 A3010 RMK AO2 T02630175 10264 20179
KT74 191855Z AUTO 03011KT 10SM SCT037 27/17 A3008 RMK AO2 T02700169
KT74 191955Z AUTO 03012G19KT 10SM CLR 27/15 A3005 RMK AO2 T02750153
KT74 192055Z AUTO 02015G20KT 10SM CLR 28/15 A3003 RMK AO2 T02770153
KT74 192155Z AUTO 01015G18KT 10SM CLR 28/14 A3002 RMK AO2 T02770140
KT74 192255Z AUTO 03011KT 10SM CLR 27/14 A3002 RMK AO2 T02700137
KT74 192355Z AUTO 02011G18KT 7SM CLR 25/13 A3003 RMK AO2 T02530132 10283 20252 402830179



Page loaded:  00:12 UTC  |   05:12 PM Pacific  |   06:12 PM Mountain  |   07:12 PM Central  |   08:12 PM Eastern

 

ADVISORIES

FORECASTS

FORECASTS

OBSERVATIONS

USER TOOLS

ABOUT US